Time;durP1;ratioP1;P1;durP2;ratioP2;P2;SDS_P1;SDS_P2;PMS_P1;PMS_P2;Temp;Humidity;BMP_temperature;BMP_pressure;BME280_temperature;BME280_humidity;BME280_pressure;Samples;Min_cycle;Max_cycle;Signal;HPM_P1;HPM_P2
2022/11/12 00:07:19;;;;;;;5.18;3.58;;;;;;;8.84;67.88;102086.69;18562701;32;20171;-59
2022/11/12 00:17:22;;;;;;;2.05;1.92;;;;;;;8.93;67.62;102076.56;18562230;32;20119;-60
2022/11/12 00:27:27;;;;;;;2.22;2.10;;;;;;;8.87;68.32;102077.28;18561754;32;20419;-60
2022/11/12 00:37:30;;;;;;;1.85;1.70;;;;;;;9.08;67.66;102057.94;18561627;32;20085;-60
2022/11/12 00:47:35;;;;;;;2.67;2.45;;;;;;;8.99;68.48;102062.84;18561268;32;20440;-60
2022/11/12 00:57:38;;;;;;;3.65;3.35;;;;;;;9.15;68.28;102048.56;18561233;32;20092;-60
2022/11/12 01:07:43;;;;;;;5.87;3.22;;;;;;;9.08;68.33;102050.13;18560420;32;20088;-60
2022/11/12 01:17:46;;;;;;;4.28;3.85;;;;;;;9.24;67.71;102043.63;18559818;32;20164;-60
2022/11/12 01:27:52;;;;;;;1.77;1.67;;;;;;;9.11;68.15;102044.13;18560027;31;20165;-60
2022/11/12 01:37:55;;;;;;;2.50;0.90;;;;;;;9.06;68.36;102040.47;18558522;32;20111;-60
2022/11/12 01:48:00;;;;;;;4.20;2.92;;;;;;;9.24;67.82;102035.81;18558051;32;20107;-60
2022/11/12 01:58:14;;;;;;;2.53;2.28;;;;;;;9.23;67.56;102022.75;18557351;32;20482;-60
2022/11/12 02:08:19;;;;;;;15.93;2.05;;;;;;;9.25;67.80;102021.94;18559442;32;20199;-60
2022/11/12 02:18:22;;;;;;;3.42;3.12;;;;;;;9.34;67.46;102005.69;18565424;32;20111;-60
2022/11/12 02:28:28;;;;;;;0.80;0.80;;;;;;;9.21;67.33;102012.28;18565051;31;20436;-60
2022/11/12 02:38:31;;;;;;;5.35;3.50;;;;;;;8.95;67.36;102020.19;18565014;32;20098;-60
2022/11/12 02:48:36;;;;;;;1.73;1.62;;;;;;;8.82;67.18;102010.22;18564869;32;20097;-60
2022/11/12 02:58:39;;;;;;;1.23;1.23;;;;;;;8.71;67.86;102026.41;18565614;32;20092;-60
2022/11/12 03:08:43;;;;;;;1.42;1.40;;;;;;;8.66;67.96;102014.06;18564337;32;20096;-60
2022/11/12 03:18:46;;;;;;;7.68;2.00;;;;;;;8.56;68.49;102018.12;18563511;32;20436;-60
2022/11/12 03:28:52;;;;;;;1.40;1.25;;;;;;;8.68;67.57;102028.00;18563654;31;20145;-60
2022/11/12 03:38:55;;;;;;;3.22;2.97;;;;;;;8.46;67.47;102041.22;18563831;32;20365;-60
2022/11/12 03:49:01;;;;;;;1.15;1.15;;;;;;;8.45;66.79;102043.75;18563263;31;20176;-60
2022/11/12 03:59:05;;;;;;;2.15;1.95;;;;;;;8.40;66.45;102042.72;18562800;32;20181;-60
2022/11/12 04:09:09;;;;;;;0.50;0.50;;;;;;;8.07;67.58;102041.62;18562727;32;20092;-60
2022/11/12 04:44:58;;;;;;;1.23;1.20;;;;;;;7.71;68.06;102044.72;18561633;31;20451;-60
2022/11/12 04:50:21;;;;;;;3.40;3.17;;;;;;;7.78;67.66;102038.91;18561152;31;20111;-60
2022/11/12 05:00:24;;;;;;;1.92;1.83;;;;;;;7.56;67.66;102042.44;18561797;32;20091;-60
2022/11/12 05:10:29;;;;;;;2.00;1.87;;;;;;;7.45;67.65;102042.03;18560383;32;20088;-59
2022/11/12 05:20:32;;;;;;;2.17;2.08;;;;;;;7.34;68.46;102059.81;18560664;32;20113;-60
2022/11/12 05:30:36;;;;;;;2.35;2.20;;;;;;;7.58;67.83;102054.63;18558978;31;20092;-60
2022/11/12 05:40:44;;;;;;;3.15;2.95;;;;;;;7.45;68.40;102047.22;18559530;32;20144;-60
2022/11/12 05:50:51;;;;;;;1.25;1.12;;;;;;;7.38;68.01;102046.13;18567602;32;20189;-60
2022/11/12 06:01:14;;;;;;;0.73;0.73;;;;;;;7.61;68.14;102064.25;18567101;32;20092;-60
2022/11/12 06:11:18;;;;;;;0.82;0.82;;;;;;;7.54;68.67;102076.16;18565920;32;20100;-60
2022/11/12 06:21:22;;;;;;;3.00;0.90;;;;;;;7.72;69.09;102090.66;18565134;32;20368;-60
2022/11/12 06:31:26;;;;;;;4.15;1.67;;;;;;;8.01;69.42;102109.03;18565295;32;20096;-60
2022/11/12 06:41:29;;;;;;;0.60;0.60;;;;;;;8.22;70.55;102110.63;18565522;32;20156;-60
2022/11/12 06:51:34;;;;;;;0.90;0.90;;;;;;;8.08;72.24;102120.53;18561077;32;20093;-60
2022/11/12 07:01:37;;;;;;;0.90;0.90;;;;;;;8.82;70.80;102127.41;18560257;32;20108;-60
2022/11/12 07:11:42;;;;;;;0.70;0.70;;;;;;;9.14;70.38;102143.22;18608203;31;20153;-60
2022/11/12 07:21:45;;;;;;;0.70;0.70;;;;;;;9.11;71.49;102154.41;18626148;31;20625;-60
2022/11/12 07:31:50;;;;;;;3.35;3.08;;;;;;;9.67;70.82;102158.72;18573756;31;20551;-60
2022/11/12 07:41:53;;;;;;;1.42;1.10;;;;;;;9.91;71.23;102141.16;18560835;32;20092;-60
2022/11/12 07:51:58;;;;;;;0.90;0.90;;;;;;;10.34;70.93;102142.34;18604763;31;20516;-60
2022/11/12 08:02:01;;;;;;;6.30;2.15;;;;;;;10.62;71.16;102150.94;18554784;31;20151;-60
2022/11/12 08:12:06;;;;;;;0.88;0.88;;;;;;;10.52;73.40;102144.59;18557195;32;20092;-60
2022/11/12 08:22:09;;;;;;;2.42;1.45;;;;;;;10.46;75.01;102160.06;18572001;31;20390;-61
2022/11/12 08:32:14;;;;;;;2.03;1.58;;;;;;;11.80;70.75;102165.81;18602240;31;20559;-60
2022/11/12 08:42:17;;;;;;;2.92;1.83;;;;;;;12.04;71.21;102160.25;18593290;31;20464;-60
2022/11/12 08:52:22;;;;;;;0.85;0.85;;;;;;;13.37;68.00;102160.75;18619073;31;20372;-60
2022/11/12 09:02:25;;;;;;;1.35;1.25;;;;;;;13.14;66.63;102163.91;18599332;31;20109;-60
2022/11/12 09:12:29;;;;;;;1.90;1.75;;;;;;;13.77;62.95;102163.06;18557735;31;20111;-60
2022/11/12 09:22:33;;;;;;;0.90;0.77;;;;;;;13.99;62.08;102182.59;18608177;31;20104;-61
2022/11/12 09:32:37;;;;;;;1.73;0.90;;;;;;;13.67;63.08;102192.69;18598748;31;20100;-60
2022/11/12 09:42:41;;;;;;;0.70;0.70;;;;;;;13.49;64.62;102188.94;18617066;31;20128;-61
2022/11/12 09:52:48;;;;;;;1.02;0.62;;;;;;;13.64;63.02;102198.75;18594142;31;20089;-60
2022/11/12 10:02:55;;;;;;;0.40;0.40;;;;;;;13.09;65.12;102199.69;18556346;32;20396;-61
2022/11/12 10:13:10;;;;;;;1.67;1.20;;;;;;;13.49;64.39;102203.81;18554969;31;20137;-61
2022/11/12 10:23:19;;;;;;;1.35;1.10;;;;;;;13.55;64.32;102201.25;18618670;31;20106;-61
2022/11/12 10:33:23;;;;;;;0.80;0.73;;;;;;;13.60;64.31;102196.97;18591353;31;20092;-61
2022/11/12 10:43:26;;;;;;;1.15;0.75;;;;;;;14.29;62.60;102194.31;18603146;31;20108;-61
2022/11/12 10:53:33;;;;;;;1.73;1.33;;;;;;;14.53;62.02;102184.06;18623027;31;20096;-61
2022/11/12 11:03:38;;;;;;;0.40;0.40;;;;;;;15.37;58.58;102183.03;18596230;31;20431;-59
2022/11/12 11:13:43;;;;;;;0.82;0.60;;;;;;;15.22;58.29;102177.66;18626461;31;20148;-59
2022/11/12 11:23:51;;;;;;;0.85;0.75;;;;;;;15.28;58.17;102166.28;18627556;31;20100;-59
2022/11/12 11:33:59;;;;;;;0.52;0.52;;;;;;;15.32;58.05;102165.41;18627273;31;20076;-59
2022/11/12 11:44:08;;;;;;;1.20;1.10;;;;;;;15.59;56.89;102158.56;18623231;31;20095;-59
2022/11/12 11:54:32;;;;;;;2.50;1.15;;;;;;;15.66;56.65;102153.34;18623055;31;20179;-60
2022/11/12 12:04:44;;;;;;;1.60;0.88;;;;;;;16.16;56.23;102143.00;18625202;31;20103;-59
2022/11/12 12:14:54;;;;;;;0.50;0.50;;;;;;;16.25;56.14;102131.59;18623489;31;20080;-60
2022/11/12 12:25:01;;;;;;;0.90;0.85;;;;;;;16.31;56.11;102133.38;18620209;31;20506;-59
2022/11/12 12:35:13;;;;;;;0.60;0.60;;;;;;;16.34;56.22;102123.72;18622137;31;20112;-59
2022/11/12 12:45:34;;;;;;;1.65;0.68;;;;;;;16.36;55.80;102116.72;18621702;31;20152;-59
2022/11/12 12:55:42;;;;;;;0.77;0.70;;;;;;;16.36;55.59;102110.53;18623399;31;20490;-59
2022/11/12 13:06:06;;;;;;;0.28;0.28;;;;;;;16.24;55.82;102106.12;18622338;31;20088;-59
2022/11/12 13:16:10;;;;;;;1.17;0.60;;;;;;;16.42;55.52;102096.50;18626558;31;20373;-59
2022/11/12 13:26:45;;;;;;;0.40;0.40;;;;;;;16.36;55.67;102102.62;18577748;31;20100;-59
2022/11/12 13:36:58;;;;;;;0.40;0.40;;;;;;;16.32;56.00;102095.63;18558244;32;20096;-59
2022/11/12 13:47:01;;;;;;;0.37;0.37;;;;;;;16.59;55.37;102088.56;18558137;32;20107;-59
2022/11/12 13:57:26;;;;;;;0.62;0.62;;;;;;;16.48;55.75;102089.47;18557622;32;20124;-60
2022/11/12 14:07:39;;;;;;;0.55;0.55;;;;;;;16.45;55.75;102093.84;18563441;32;20480;-59
2022/11/12 14:17:55;;;;;;;3.03;2.00;;;;;;;16.46;55.89;102083.31;18566124;32;20110;-59
2022/11/12 14:27:58;;;;;;;1.02;1.02;;;;;;;16.46;56.00;102085.09;18565249;32;20097;-59
2022/11/12 14:38:15;;;;;;;0.35;0.35;;;;;;;16.35;57.01;102093.84;18565109;32;20142;-59
2022/11/12 14:48:19;;;;;;;1.85;0.85;;;;;;;16.31;57.21;102085.94;18565434;32;20190;-59
2022/11/12 14:58:25;;;;;;;0.70;0.52;;;;;;;16.14;57.87;102092.06;18563983;31;20138;-59
2022/11/12 15:08:33;;;;;;;0.52;0.52;;;;;;;16.09;58.04;102093.81;18565411;32;20100;-59
2022/11/12 15:18:39;;;;;;;2.00;1.23;;;;;;;16.02;58.51;102097.31;18563464;32;20141;-59
2022/11/12 15:28:42;;;;;;;1.62;0.98;;;;;;;15.83;58.59;102099.84;18563488;32;20088;-59
2022/11/12 15:38:49;;;;;;;0.50;0.50;;;;;;;15.54;59.35;102100.63;18573410;31;20454;-60
2022/11/12 15:48:53;;;;;;;3.90;2.58;;;;;;;15.20;60.21;102111.00;18590289;31;20081;-59
2022/11/12 15:58:59;;;;;;;0.93;0.62;;;;;;;14.94;60.79;102116.97;18568166;31;20153;-60
2022/11/12 16:09:03;;;;;;;0.50;0.40;;;;;;;14.71;61.45;102125.53;18588813;31;20536;-60
2022/11/12 16:19:15;;;;;;;1.27;1.17;;;;;;;14.47;62.40;102131.47;18611704;31;20100;-60
2022/11/12 16:29:19;;;;;;;3.25;1.10;;;;;;;14.37;62.70;102133.09;18614929;31;73146;-60
2022/11/12 16:40:00;;;;;;;0.98;0.95;;;;;;;14.10;62.68;102132.84;18606427;31;20108;-58
2022/11/12 16:50:04;;;;;;;1.05;0.95;;;;;;;13.88;62.94;102147.47;18570073;31;20115;-58
2022/11/12 17:00:11;;;;;;;5.47;1.65;;;;;;;13.72;63.35;102138.53;18558737;32;20092;-58
2022/11/12 17:10:15;;;;;;;1.30;1.20;;;;;;;13.55;63.56;102131.31;18598829;31;20178;-58
2022/11/12 17:20:20;;;;;;;0.50;0.50;;;;;;;13.41;63.46;102124.94;18568567;31;20471;-58
2022/11/12 17:30:23;;;;;;;5.12;2.97;;;;;;;12.99;63.83;102133.09;18560675;31;20114;-58
2022/11/12 17:40:28;;;;;;;1.73;1.12;;;;;;;12.71;63.91;102126.53;18613727;31;20418;-58
2022/11/12 17:50:31;;;;;;;2.45;2.15;;;;;;;12.20;65.04;102135.28;18613742;31;20114;-58
2022/11/12 18:00:36;;;;;;;1.20;1.10;;;;;;;11.92;65.69;102150.41;18628394;31;20088;-57
2022/11/12 18:10:41;;;;;;;2.08;1.75;;;;;;;11.74;65.80;102132.56;18628316;31;20170;-58
2022/11/12 18:20:46;;;;;;;2.55;2.37;;;;;;;11.77;65.25;102142.22;18613209;31;20146;-58
2022/11/12 18:30:49;;;;;;;0.62;0.62;;;;;;;11.57;65.85;102141.78;18598735;31;20211;-58
2022/11/12 18:41:01;;;;;;;2.83;1.92;;;;;;;11.54;65.91;102141.72;18602419;31;20126;-58
2022/11/12 18:51:07;;;;;;;2.55;1.75;;;;;;;11.37;66.30;102153.59;18597559;31;20108;-58
2022/11/12 19:01:14;;;;;;;1.70;1.60;;;;;;;11.31;66.54;102160.41;18614595;31;20472;-58
2022/11/12 19:11:20;;;;;;;0.52;0.52;;;;;;;11.32;66.38;102175.25;18612991;31;20096;-58
2022/11/12 19:21:26;;;;;;;3.05;1.55;;;;;;;11.23;66.41;102171.56;18622244;31;20112;-58
2022/11/12 19:31:29;;;;;;;3.67;2.22;;;;;;;11.00;67.24;102175.34;18610184;31;20103;-58
2022/11/12 19:41:34;;;;;;;1.02;0.73;;;;;;;11.14;66.48;102181.81;18625170;31;20136;-58
2022/11/12 19:51:37;;;;;;;3.80;2.72;;;;;;;11.03;66.56;102180.66;18625358;31;20169;-58
2022/11/12 20:01:42;;;;;;;2.85;1.45;;;;;;;10.89;66.12;102191.66;18593875;31;20172;-58
2022/11/12 20:11:45;;;;;;;3.08;2.55;;;;;;;10.71;66.68;102206.84;18586294;31;20114;-58
2022/11/12 20:21:49;;;;;;;2.75;2.15;;;;;;;10.64;66.06;102209.31;18575029;31;20104;-58
2022/11/12 20:31:52;;;;;;;2.58;2.37;;;;;;;10.48;66.51;102212.34;18556662;32;20151;-58
2022/11/12 20:41:57;;;;;;;2.58;2.37;;;;;;;10.18;67.34;102218.44;18580269;31;20104;-57
2022/11/12 20:52:00;;;;;;;1.33;1.12;;;;;;;10.05;68.28;102219.81;18591810;31;20084;-58
2022/11/12 21:02:05;;;;;;;1.92;1.83;;;;;;;10.31;66.61;102212.72;18563005;31;20115;-58
2022/11/12 21:12:09;;;;;;;1.65;1.55;;;;;;;10.05;66.55;102205.03;18589536;31;20102;-57
2022/11/12 21:22:14;;;;;;;1.30;1.00;;;;;;;10.00;66.12;102206.63;18622506;31;20091;-57
2022/11/12 21:32:17;;;;;;;2.28;2.08;;;;;;;9.65;67.21;102203.84;18619144;31;20096;-57
2022/11/12 21:42:22;;;;;;;3.28;2.75;;;;;;;9.76;67.00;102210.28;18622248;31;20105;-57
2022/11/12 21:52:25;;;;;;;1.23;1.23;;;;;;;9.74;67.40;102209.34;18589850;31;20099;-57
2022/11/12 22:02:30;;;;;;;1.60;1.50;;;;;;;9.84;67.06;102214.00;18574888;31;20096;-58
2022/11/12 22:12:33;;;;;;;4.47;2.67;;;;;;;9.68;66.90;102203.97;18567992;31;20118;-58
2022/11/12 22:22:37;;;;;;;0.88;0.80;;;;;;;9.64;66.69;102194.25;18575762;31;20161;-58
2022/11/12 22:32:41;;;;;;;6.45;1.75;;;;;;;9.53;66.79;102200.03;18598226;31;20513;-58
2022/11/12 22:42:45;;;;;;;5.22;3.95;;;;;;;9.35;66.94;102197.75;18628230;31;20106;-57
2022/11/12 22:52:48;;;;;;;1.48;1.37;;;;;;;9.32;66.40;102189.81;18626900;31;20474;-58
2022/11/12 23:02:53;;;;;;;2.28;1.85;;;;;;;9.14;67.50;102195.31;18626687;31;20102;-57
2022/11/12 23:12:56;;;;;;;1.05;1.05;;;;;;;9.28;67.41;102198.38;18607840;31;20423;-58
2022/11/12 23:23:01;;;;;;;4.00;3.75;;;;;;;9.04;68.11;102198.47;18590866;31;20084;-58
2022/11/12 23:33:04;;;;;;;0.98;0.93;;;;;;;9.00;67.87;102197.47;18563341;31;20132;-58
2022/11/12 23:43:09;;;;;;;9.32;2.15;;;;;;;9.08;67.50;102198.63;18571165;31;20104;-57
2022/11/12 23:53:12;;;;;;;1.00;1.00;;;;;;;8.74;67.97;102211.38;18583631;31;20096;-58
